createdAt,value
2022-11-08T00:00:24.557Z,9.36
2022-11-08T00:00:36.735Z,9.20
2022-11-08T00:01:37.665Z,9.20
2022-11-08T00:02:37.564Z,9.20
2022-11-08T00:03:37.837Z,9.20
2022-11-08T00:04:39.329Z,9.19
2022-11-08T00:05:39.594Z,9.19
2022-11-08T00:06:40.028Z,9.18
2022-11-08T00:07:39.665Z,9.18
2022-11-08T00:08:40.982Z,9.17
2022-11-08T00:09:40.372Z,9.16
2022-11-08T00:10:41.990Z,9.15
2022-11-08T00:11:42.268Z,9.14
2022-11-08T00:12:42.580Z,9.14
2022-11-08T00:13:42.994Z,9.13
2022-11-08T00:14:42.302Z,9.12
2022-11-08T00:15:43.668Z,9.12
2022-11-08T00:16:43.296Z,9.11
2022-11-08T00:17:44.849Z,9.10
2022-11-08T00:18:45.297Z,9.10
2022-11-08T00:19:45.759Z,9.09
2022-11-08T00:20:45.309Z,9.09
2022-11-08T00:21:45.956Z,9.08
2022-11-08T00:21:54.701Z,9.03
2022-11-08T00:22:54.621Z,9.03
2022-11-08T00:23:55.982Z,9.03
2022-11-08T00:24:56.404Z,9.03
2022-11-08T00:25:56.807Z,9.03
2022-11-08T00:26:56.215Z,9.02
2022-11-08T00:27:57.620Z,9.02
2022-11-08T00:28:57.958Z,9.02
2022-11-08T00:29:58.698Z,9.01
2022-11-08T00:30:59.025Z,9.01
2022-11-08T00:31:58.426Z,9.00
2022-11-08T00:32:59.765Z,8.99
2022-11-08T00:33:59.988Z,8.98
2022-11-08T00:35:00.536Z,8.98
2022-11-08T00:36:00.975Z,8.97
2022-11-08T00:37:01.875Z,8.97
2022-11-08T00:38:02.195Z,8.96
2022-11-08T00:39:03.174Z,8.96
2022-11-08T00:40:03.927Z,8.95
2022-11-08T00:41:04.458Z,8.94
2022-11-08T00:42:05.042Z,8.93
2022-11-08T00:42:14.699Z,8.78
2022-11-08T00:43:16.244Z,8.78
2022-11-08T00:44:15.869Z,8.78
2022-11-08T00:45:17.193Z,8.78
2022-11-08T00:46:18.299Z,8.77
2022-11-08T00:47:16.589Z,8.77
2022-11-08T00:48:19.824Z,8.77
2022-11-08T00:49:17.791Z,8.76
2022-11-08T00:50:17.979Z,8.75
2022-11-08T00:51:19.511Z,8.75
2022-11-08T00:52:19.706Z,8.74
2022-11-08T00:53:19.019Z,8.73
2022-11-08T00:54:21.474Z,8.72
2022-11-08T00:55:21.175Z,8.71
2022-11-08T00:56:21.957Z,8.70
2022-11-08T00:57:27.539Z,8.69
2022-11-08T00:58:27.110Z,8.68
2022-11-08T00:59:22.046Z,8.67
2022-11-08T01:00:24.584Z,8.66
2022-11-08T01:01:22.704Z,8.66
2022-11-08T01:02:23.607Z,8.64
2022-11-08T01:03:23.831Z,8.63
2022-11-08T01:03:32.501Z,8.43
2022-11-08T01:04:33.506Z,8.43
2022-11-08T01:05:32.872Z,8.43
2022-11-08T01:06:33.838Z,8.43
2022-11-08T01:07:33.383Z,8.43
2022-11-08T01:08:34.756Z,8.43
2022-11-08T01:09:34.227Z,8.42
2022-11-08T01:10:34.678Z,8.42
2022-11-08T01:11:35.993Z,8.42
2022-11-08T01:12:36.323Z,8.41
2022-11-08T01:13:36.606Z,8.40
2022-11-08T01:14:36.955Z,8.40
2022-11-08T01:15:36.375Z,8.39
2022-11-08T01:16:36.509Z,8.39
2022-11-08T01:17:36.772Z,8.38
2022-11-08T01:18:37.004Z,8.38
2022-11-08T01:19:38.541Z,8.38
2022-11-08T01:20:38.935Z,8.38
2022-11-08T01:21:39.405Z,8.38
2022-11-08T01:22:39.773Z,8.38
2022-11-08T01:23:40.196Z,8.37
2022-11-08T01:24:40.408Z,8.37
2022-11-08T01:24:49.052Z,8.35
2022-11-08T01:25:50.643Z,8.35
2022-11-08T01:26:49.967Z,8.35
2022-11-08T01:27:51.410Z,8.35
2022-11-08T01:28:52.028Z,8.35
2022-11-08T01:29:52.429Z,8.35
2022-11-08T01:30:51.461Z,8.34
2022-11-08T01:31:51.932Z,8.34
2022-11-08T01:32:52.743Z,8.34
2022-11-08T01:33:54.141Z,8.33
2022-11-08T01:34:53.573Z,8.33
2022-11-08T01:35:55.128Z,8.32
2022-11-08T01:36:56.323Z,8.32
2022-11-08T01:37:55.632Z,8.32
2022-11-08T01:38:56.129Z,8.31
2022-11-08T01:39:55.688Z,8.31
2022-11-08T01:40:57.058Z,8.30
2022-11-08T01:41:57.486Z,8.30
2022-11-08T01:42:58.239Z,8.30
2022-11-08T01:43:58.884Z,8.29
2022-11-08T01:44:07.525Z,8.22
2022-11-08T01:45:08.696Z,8.22
2022-11-08T01:46:09.085Z,8.22
2022-11-08T01:47:09.373Z,8.22
2022-11-08T01:48:08.597Z,8.21
2022-11-08T01:49:09.774Z,8.20
2022-11-08T01:50:09.956Z,8.20
2022-11-08T01:51:10.313Z,8.19
2022-11-08T01:52:09.587Z,8.18
2022-11-08T03:43:13.091Z,8.17
2022-11-08T03:44:13.939Z,8.09
2022-11-08T03:45:15.126Z,8.02
2022-11-08T03:46:14.737Z,7.95
2022-11-08T03:47:16.044Z,7.88
2022-11-08T03:48:17.230Z,7.82
2022-11-08T03:49:16.116Z,7.76
2022-11-08T03:50:17.835Z,7.69
2022-11-08T03:51:18.322Z,7.64
2022-11-08T03:52:19.169Z,7.58
2022-11-08T03:53:19.869Z,7.53
2022-11-08T03:54:20.799Z,7.48
2022-11-08T03:54:29.535Z,6.72
2022-11-08T03:55:31.217Z,6.72
2022-11-08T03:56:31.885Z,6.72
2022-11-08T03:57:59.768Z,6.77
2022-11-08T03:59:00.522Z,6.77
2022-11-08T04:00:00.414Z,6.76
2022-11-08T04:01:01.863Z,6.76
2022-11-08T04:02:01.108Z,6.75
2022-11-08T04:03:01.895Z,6.75
2022-11-08T04:04:03.876Z,6.75
2022-11-08T04:05:04.753Z,6.74
2022-11-08T04:06:04.858Z,6.74
2022-11-08T04:07:05.606Z,6.73
2022-11-08T04:08:06.218Z,6.73
2022-11-08T04:09:06.961Z,6.72
2022-11-08T04:10:07.388Z,6.72
2022-11-08T04:11:08.036Z,6.71
2022-11-08T04:12:08.878Z,6.70
2022-11-08T04:13:09.435Z,6.70
2022-11-08T04:14:10.092Z,6.69
2022-11-08T04:15:09.427Z,6.69
2022-11-08T04:16:13.916Z,6.68
2022-11-08T04:17:10.875Z,6.67
2022-11-08T04:18:11.905Z,6.67
2022-11-08T04:19:11.797Z,6.67
2022-11-08T04:20:12.941Z,6.66
2022-11-08T04:20:21.616Z,6.57
2022-11-08T04:21:23.251Z,6.57
2022-11-08T04:22:23.225Z,6.57
2022-11-08T04:23:23.638Z,6.57
2022-11-08T04:24:24.488Z,6.57
2022-11-08T04:25:25.224Z,6.57
2022-11-08T04:26:25.711Z,6.57
2022-11-08T04:27:26.441Z,6.58
2022-11-08T04:28:27.062Z,6.58
2022-11-08T04:29:27.477Z,6.58
2022-11-08T04:30:26.628Z,6.59
2022-11-08T04:31:28.490Z,6.59
2022-11-08T04:32:28.861Z,6.60
2022-11-08T04:33:29.756Z,6.60
2022-11-08T04:34:29.557Z,6.61
2022-11-08T04:35:31.541Z,6.61
2022-11-08T04:36:31.762Z,6.62
2022-11-08T04:37:32.022Z,6.62
2022-11-08T04:38:32.391Z,6.63
2022-11-08T04:38:41.399Z,6.73
2022-11-08T04:39:42.318Z,6.73
2022-11-08T04:40:42.663Z,6.73
2022-11-08T04:41:44.602Z,6.73
2022-11-08T04:43:18.818Z,6.71
2022-11-08T04:44:19.560Z,6.71
2022-11-08T04:45:20.310Z,6.70
2022-11-08T04:46:20.760Z,6.70
2022-11-08T04:47:22.011Z,6.70
2022-11-08T04:48:22.826Z,6.69
2022-11-08T04:49:23.030Z,6.69
2022-11-08T04:50:24.026Z,6.68
2022-11-08T04:51:24.974Z,6.67
2022-11-08T04:52:25.912Z,6.67
2022-11-08T04:53:25.777Z,6.66
2022-11-08T04:54:27.726Z,6.66
2022-11-08T04:55:27.803Z,6.65
2022-11-08T04:56:28.748Z,6.64
2022-11-08T04:57:28.625Z,6.63
2022-11-08T04:58:30.520Z,6.62
2022-11-08T04:59:31.482Z,6.61
2022-11-08T05:00:32.063Z,6.61
2022-11-08T05:01:31.802Z,6.60
2022-11-08T05:02:32.110Z,6.59
2022-11-08T05:03:32.844Z,6.58
2022-11-08T05:03:41.478Z,6.49
2022-11-08T05:04:42.969Z,6.49
2022-11-08T05:05:43.839Z,6.49
2022-11-08T05:06:43.896Z,6.49
2022-11-08T05:07:44.045Z,6.49
2022-11-08T05:08:44.769Z,6.50
2022-11-08T05:09:45.227Z,6.50
2022-11-08T05:10:45.753Z,6.51
2022-11-08T05:11:46.572Z,6.53
2022-11-08T05:12:47.420Z,6.55
2022-11-08T05:13:48.000Z,6.57
2022-11-08T05:14:48.564Z,6.59
2022-11-08T05:15:49.350Z,6.62
2022-11-08T05:16:48.392Z,6.64
2022-11-08T05:17:49.910Z,6.66
2022-11-08T05:18:50.759Z,6.68
2022-11-08T05:19:51.318Z,6.70
2022-11-08T05:20:51.482Z,6.73
2022-11-08T05:21:52.060Z,6.75
2022-11-08T05:22:01.187Z,7.20
2022-11-08T05:23:01.219Z,7.20
2022-11-08T05:24:02.415Z,7.20
2022-11-08T05:25:02.333Z,7.20
2022-11-08T05:26:02.577Z,7.20
2022-11-08T05:27:03.955Z,7.21
2022-11-08T05:28:03.970Z,7.21
2022-11-08T05:29:03.205Z,7.22
2022-11-08T05:30:04.597Z,7.22
2022-11-08T05:31:04.339Z,7.23
2022-11-08T05:32:05.286Z,7.24
2022-11-08T05:33:06.738Z,7.25
2022-11-08T05:34:07.001Z,7.26
2022-11-08T05:35:07.940Z,7.27
2022-11-08T05:36:08.846Z,7.28
2022-11-08T05:37:09.018Z,7.29
2022-11-08T05:38:09.520Z,7.30
2022-11-08T05:39:09.883Z,7.31
2022-11-08T05:40:10.019Z,7.32
2022-11-08T05:41:10.194Z,7.33
2022-11-08T05:42:10.908Z,7.33
2022-11-08T05:43:10.031Z,7.34
2022-11-08T05:44:10.668Z,7.35
2022-11-08T05:44:19.827Z,7.50
2022-11-08T05:45:21.746Z,7.50
2022-11-08T05:46:22.648Z,7.50
2022-11-08T05:47:22.650Z,7.50
2022-11-08T05:48:24.361Z,7.50
2022-11-08T05:49:24.554Z,7.50
2022-11-08T05:50:25.186Z,7.51
2022-11-08T05:51:25.199Z,7.51
2022-11-08T05:52:25.418Z,7.51
2022-11-08T05:53:24.477Z,7.51
2022-11-08T05:54:26.001Z,7.51
2022-11-08T05:55:26.558Z,7.52
2022-11-08T05:56:27.073Z,7.52
2022-11-08T05:57:27.905Z,7.51
2022-11-08T05:58:28.697Z,7.51
2022-11-08T05:59:29.511Z,7.51
2022-11-08T06:00:30.195Z,7.51
2022-11-08T06:01:30.432Z,7.51
2022-11-08T06:02:30.500Z,7.52
2022-11-08T06:03:31.175Z,7.52
2022-11-08T06:04:30.882Z,7.52
2022-11-08T06:04:39.988Z,7.61
2022-11-08T06:05:41.948Z,7.61
2022-11-08T06:06:42.136Z,7.61
2022-11-08T06:07:42.361Z,7.60
2022-11-08T06:08:47.459Z,7.60
2022-11-08T06:09:41.679Z,7.60
2022-11-08T06:10:42.862Z,7.60
2022-11-08T06:11:43.881Z,7.59
2022-11-08T06:12:42.875Z,7.59
2022-11-08T06:13:44.526Z,7.58
2022-11-08T06:14:45.173Z,7.58
2022-11-08T06:15:45.449Z,7.58
2022-11-08T06:16:44.913Z,7.58
2022-11-08T06:17:45.062Z,7.58
2022-11-08T06:18:46.633Z,7.58
2022-11-08T06:19:47.107Z,7.58
2022-11-08T06:20:47.830Z,7.58
2022-11-08T06:21:48.150Z,7.58
2022-11-08T06:22:47.618Z,7.58
2022-11-08T06:23:49.429Z,7.59
2022-11-08T06:23:58.504Z,7.63
2022-11-08T06:24:58.530Z,7.63
2022-11-08T06:25:59.655Z,7.63
2022-11-08T06:27:00.314Z,7.63
2022-11-08T06:27:59.694Z,7.63
2022-11-08T06:29:01.545Z,7.63
2022-11-08T06:30:01.991Z,7.63
2022-11-08T06:31:02.515Z,7.64
2022-11-08T06:32:02.068Z,7.64
2022-11-08T06:33:02.689Z,7.64
2022-11-08T06:34:04.630Z,7.64
2022-11-08T06:35:04.718Z,7.65
2022-11-08T06:36:04.841Z,7.65
2022-11-08T06:37:05.769Z,7.66
2022-11-08T06:38:09.307Z,7.66
2022-11-08T06:39:06.357Z,7.67
2022-11-08T06:40:08.110Z,7.68
2022-11-08T06:41:07.849Z,7.69
2022-11-08T06:42:08.603Z,7.70
2022-11-08T06:43:11.051Z,7.71
2022-11-08T06:44:09.905Z,7.72
2022-11-08T06:45:11.179Z,7.73
2022-11-08T06:45:21.826Z,7.94
2022-11-08T06:46:23.701Z,7.94
2022-11-08T06:47:23.493Z,7.94
2022-11-08T06:48:24.299Z,7.94
2022-11-08T06:49:25.976Z,7.95
2022-11-08T06:50:25.271Z,7.95
2022-11-08T06:51:25.890Z,7.95
2022-11-08T06:52:27.524Z,7.96
2022-11-08T06:53:27.213Z,7.97
2022-11-08T06:54:28.937Z,7.97
2022-11-08T06:55:29.408Z,7.98
2022-11-08T06:56:30.163Z,7.98
2022-11-08T06:58:05.902Z,8.10
2022-11-08T06:59:05.638Z,8.10
2022-11-08T07:00:07.473Z,8.10
2022-11-08T07:01:06.762Z,8.11
2022-11-08T07:02:34.892Z,8.21
2022-11-08T07:03:35.718Z,8.20
2022-11-08T07:04:36.488Z,8.20
2022-11-08T07:05:38.256Z,8.20
2022-11-08T07:06:39.014Z,8.20
2022-11-08T07:07:39.210Z,8.20
2022-11-08T07:08:39.307Z,8.20
2022-11-08T07:09:39.952Z,8.21
2022-11-08T07:10:40.698Z,8.21
2022-11-08T07:11:41.505Z,8.21
2022-11-08T07:12:41.127Z,8.21
2022-11-08T07:13:41.812Z,8.22
2022-11-08T07:14:43.055Z,8.22
2022-11-08T07:15:43.959Z,8.22
2022-11-08T07:16:44.657Z,8.23
2022-11-08T07:17:45.168Z,8.24
2022-11-08T07:18:44.895Z,8.24
2022-11-08T07:19:45.306Z,8.25
2022-11-08T07:20:47.276Z,8.26
2022-11-08T07:21:47.255Z,8.26
2022-11-08T07:22:48.171Z,8.27
2022-11-08T07:23:48.805Z,8.28
2022-11-08T07:23:57.472Z,8.40
2022-11-08T07:24:57.801Z,8.40
2022-11-08T07:25:59.431Z,8.40
2022-11-08T07:27:00.517Z,8.40
2022-11-08T07:27:59.525Z,8.40
2022-11-08T07:28:59.289Z,8.40
2022-11-08T07:30:00.629Z,8.41
2022-11-08T07:31:00.093Z,8.41
2022-11-08T07:32:00.544Z,8.41
2022-11-08T07:33:00.626Z,8.42
2022-11-08T07:34:00.945Z,8.42
2022-11-08T07:35:02.061Z,8.43
2022-11-08T07:36:01.745Z,8.44
2022-11-08T07:37:03.595Z,8.45
2022-11-08T07:38:04.281Z,8.45
2022-11-08T07:39:06.768Z,8.46
2022-11-08T07:40:04.136Z,8.47
2022-11-08T07:41:05.000Z,8.48
2022-11-08T07:42:06.446Z,8.49
2022-11-08T07:43:12.327Z,8.50
2022-11-08T07:44:06.789Z,8.51
2022-11-08T07:45:07.381Z,8.51
2022-11-08T07:46:09.100Z,8.52
2022-11-08T07:47:08.933Z,8.52
2022-11-08T07:47:17.576Z,8.56
2022-11-08T07:48:19.281Z,8.56
2022-11-08T07:49:18.422Z,8.55
2022-11-08T07:50:19.275Z,8.55
2022-11-08T07:51:20.875Z,8.55
2022-11-08T07:52:20.518Z,8.54
2022-11-08T07:53:22.485Z,8.54
2022-11-08T07:54:22.750Z,8.53
2022-11-08T07:55:23.316Z,8.53
2022-11-08T07:56:23.617Z,8.53
2022-11-08T07:57:23.632Z,8.52
2022-11-08T07:58:23.805Z,8.52
2022-11-08T07:59:24.075Z,8.52
2022-11-08T08:00:24.826Z,8.52
2022-11-08T08:01:25.199Z,8.53
2022-11-08T08:02:24.259Z,8.54
2022-11-08T08:03:25.142Z,8.54
2022-11-08T08:04:25.445Z,8.54
2022-11-08T08:05:27.297Z,8.55
2022-11-08T08:06:28.117Z,8.56
2022-11-08T08:07:28.928Z,8.57
2022-11-08T08:07:37.588Z,8.79
2022-11-08T08:08:38.594Z,8.79
2022-11-08T08:09:39.564Z,8.79
2022-11-08T08:10:40.260Z,8.79
2022-11-08T08:11:40.263Z,8.80
2022-11-08T08:12:42.223Z,8.80
2022-11-08T08:13:41.595Z,8.81
2022-11-08T08:14:42.961Z,8.82
2022-11-08T08:15:42.443Z,8.83
2022-11-08T08:16:42.566Z,8.85
2022-11-08T08:17:43.641Z,8.86
2022-11-08T08:18:42.966Z,8.88
2022-11-08T08:19:43.073Z,8.89
2022-11-08T08:20:44.867Z,8.91
2022-11-08T08:21:44.509Z,8.93
2022-11-08T08:22:44.662Z,8.94
2022-11-08T08:23:46.131Z,8.95
2022-11-08T08:24:46.265Z,8.97
2022-11-08T08:25:46.223Z,8.98
2022-11-08T08:26:47.846Z,9.00
2022-11-08T08:27:48.693Z,9.01
2022-11-08T08:28:48.653Z,9.03
2022-11-08T08:28:58.715Z,9.35
2022-11-08T08:30:00.333Z,9.35
2022-11-08T08:31:01.112Z,9.36
2022-11-08T08:32:00.299Z,9.37
2022-11-08T08:33:26.319Z,9.38
2022-11-08T08:34:00.647Z,9.39
2022-11-08T08:35:00.656Z,9.41
2022-11-08T08:36:01.522Z,9.43
2022-11-08T08:37:01.819Z,9.45
2022-11-08T08:38:03.056Z,9.48
2022-11-08T08:39:03.071Z,9.51
2022-11-08T08:40:03.483Z,9.53
2022-11-08T08:41:04.085Z,9.55
2022-11-08T08:42:04.723Z,9.58
2022-11-08T08:43:03.811Z,9.61
2022-11-08T08:44:04.652Z,9.64
2022-11-08T08:45:08.481Z,9.66
2022-11-08T08:46:04.898Z,9.68
2022-11-08T08:47:06.652Z,9.71
2022-11-08T08:48:07.340Z,9.73
2022-11-08T08:49:08.308Z,9.76
2022-11-08T08:50:08.029Z,9.79
2022-11-08T08:51:09.850Z,9.82
2022-11-08T08:51:20.820Z,10.32
2022-11-08T08:52:22.761Z,10.32
2022-11-08T08:53:23.729Z,10.32
2022-11-08T08:54:29.204Z,10.33
2022-11-08T08:55:23.239Z,10.34
2022-11-08T08:56:24.308Z,10.35
2022-11-08T08:57:24.953Z,10.36
2022-11-08T08:58:25.817Z,10.37
2022-11-08T09:01:42.021Z,10.41
2022-11-08T09:02:27.480Z,10.42
2022-11-08T09:03:29.388Z,10.44
2022-11-08T09:04:30.145Z,10.46
2022-11-08T09:05:29.541Z,10.49
2022-11-08T09:06:31.246Z,10.51
2022-11-08T09:07:30.664Z,10.54
2022-11-08T09:08:31.775Z,10.57
2022-11-08T09:09:31.197Z,10.59
2022-11-08T09:10:33.090Z,10.61
2022-11-08T09:11:33.888Z,10.63
2022-11-08T09:11:42.521Z,11.01
2022-11-08T09:12:44.272Z,11.01
2022-11-08T09:13:44.554Z,11.00
2022-11-08T09:14:45.483Z,11.00
2022-11-08T09:15:46.053Z,11.01
2022-11-08T09:16:45.930Z,11.02
2022-11-08T09:17:48.738Z,11.03
2022-11-08T09:18:48.292Z,11.03
2022-11-08T09:19:50.848Z,11.05
2022-11-08T09:20:48.711Z,11.06
2022-11-08T09:21:48.970Z,11.07
2022-11-08T09:22:49.617Z,11.09
2022-11-08T09:23:51.518Z,11.10
2022-11-08T09:24:52.370Z,11.11
2022-11-08T09:25:52.127Z,11.13
2022-11-08T09:26:53.033Z,11.13
2022-11-08T09:27:54.747Z,11.13
2022-11-08T09:28:55.727Z,11.14
2022-11-08T09:29:54.974Z,11.15
2022-11-08T09:30:55.706Z,11.15
2022-11-08T09:31:56.222Z,11.16
2022-11-08T09:33:01.203Z,11.15
2022-11-08T09:33:56.650Z,11.16
2022-11-08T09:34:57.425Z,11.16
2022-11-08T09:35:57.693Z,11.17
2022-11-08T09:36:59.310Z,11.19
2022-11-08T09:37:07.899Z,11.46
2022-11-08T09:38:09.622Z,11.46
2022-11-08T09:39:10.552Z,11.46
2022-11-08T09:40:10.607Z,11.46
2022-11-08T09:41:10.390Z,11.47
2022-11-08T09:42:10.954Z,11.48
2022-11-08T09:43:12.553Z,11.49
2022-11-08T09:44:13.075Z,11.51
2022-11-08T09:45:13.967Z,11.52
2022-11-08T09:46:14.420Z,11.54
2022-11-08T09:47:16.246Z,11.55
2022-11-08T09:48:14.298Z,11.56
2022-11-08T09:49:16.188Z,11.57
2022-11-08T09:50:17.008Z,11.58
2022-11-08T09:51:16.498Z,11.59
2022-11-08T09:52:17.519Z,11.60
2022-11-08T09:53:18.156Z,11.62
2022-11-08T09:53:26.783Z,11.76
2022-11-08T09:54:28.260Z,11.76
2022-11-08T09:55:30.987Z,11.76
2022-11-08T09:56:28.895Z,11.77
2022-11-08T09:57:29.230Z,11.78
2022-11-08T09:58:30.807Z,11.78
2022-11-08T09:59:31.690Z,11.79
2022-11-08T10:00:30.981Z,11.79
2022-11-08T10:01:33.013Z,11.80
2022-11-08T10:02:32.704Z,11.81
2022-11-08T10:03:34.601Z,11.81
2022-11-08T10:04:33.830Z,11.81
2022-11-08T10:05:35.564Z,11.81
2022-11-08T10:06:37.014Z,11.82
2022-11-08T10:07:35.000Z,11.83
2022-11-08T10:08:36.782Z,11.84
2022-11-08T10:09:37.108Z,11.85
2022-11-08T10:10:37.674Z,11.86
2022-11-08T10:11:39.373Z,11.87
2022-11-08T10:13:12.321Z,12.00
2022-11-08T10:14:12.436Z,12.00
2022-11-08T10:15:13.995Z,12.00
2022-11-08T10:16:14.680Z,12.00
2022-11-08T10:17:14.985Z,12.00
2022-11-08T10:18:15.704Z,12.00
2022-11-08T10:19:16.106Z,12.00
2022-11-08T10:20:15.679Z,11.99
2022-11-08T10:21:17.602Z,11.99
2022-11-08T10:22:17.190Z,11.99
2022-11-08T10:23:19.182Z,11.99
2022-11-08T10:24:18.307Z,11.99
2022-11-08T10:25:18.800Z,11.99
2022-11-08T10:26:24.110Z,11.99
2022-11-08T10:27:20.153Z,11.99
2022-11-08T10:28:21.447Z,11.99
2022-11-08T10:29:22.316Z,11.99
2022-11-08T10:30:21.820Z,11.98
2022-11-08T10:31:22.612Z,11.98
2022-11-08T10:32:24.844Z,11.97
2022-11-08T10:33:23.525Z,11.97
2022-11-08T10:34:24.950Z,11.96
2022-11-08T10:35:25.647Z,11.95
2022-11-08T10:35:34.240Z,11.82
2022-11-08T10:36:36.003Z,11.82
2022-11-08T10:37:35.492Z,11.82
2022-11-08T10:38:36.344Z,11.82
2022-11-08T10:39:38.337Z,11.83
2022-11-08T10:40:38.703Z,11.84
2022-11-08T10:41:39.285Z,11.84
2022-11-08T10:42:39.549Z,11.85
2022-11-08T10:43:40.389Z,11.85
2022-11-08T10:44:41.382Z,11.86
2022-11-08T10:45:42.000Z,11.86
2022-11-08T10:46:42.826Z,11.87
2022-11-08T10:47:42.488Z,11.88
2022-11-08T10:48:43.599Z,11.89
2022-11-08T10:49:43.611Z,11.90
2022-11-08T10:50:43.433Z,11.91
2022-11-08T10:51:45.344Z,11.93
2022-11-08T10:52:45.063Z,11.94
2022-11-08T10:53:46.280Z,11.95
2022-11-08T10:54:46.871Z,11.97
2022-11-08T10:54:55.565Z,12.21
2022-11-08T10:55:55.550Z,12.21
2022-11-08T10:56:56.823Z,12.21
2022-11-08T10:57:57.515Z,12.21
2022-11-08T10:58:56.541Z,12.22
2022-11-08T10:59:58.477Z,12.21
2022-11-08T11:00:58.866Z,12.21
2022-11-08T11:01:59.172Z,12.21
2022-11-08T11:02:59.397Z,12.21
2022-11-08T11:03:59.551Z,12.22
2022-11-08T11:05:00.410Z,12.23
2022-11-08T11:06:00.737Z,12.24
2022-11-08T11:07:00.976Z,12.26
2022-11-08T11:08:01.959Z,12.28
2022-11-08T11:09:01.054Z,12.29
2022-11-08T11:10:02.721Z,12.31
2022-11-08T11:11:02.800Z,12.33
2022-11-08T11:12:02.898Z,12.35
2022-11-08T11:13:02.181Z,12.36
2022-11-08T11:14:03.314Z,12.38
2022-11-08T11:15:03.424Z,12.39
2022-11-08T11:15:12.611Z,12.70
2022-11-08T11:16:14.472Z,12.70
2022-11-08T11:17:15.348Z,12.70
2022-11-08T11:18:15.410Z,12.70
2022-11-08T11:19:15.168Z,12.72
2022-11-08T11:20:17.095Z,12.74
2022-11-08T11:21:17.513Z,12.76
2022-11-08T11:22:18.274Z,12.79
2022-11-08T11:23:18.011Z,12.81
2022-11-08T11:24:19.519Z,12.84
2022-11-08T11:25:18.801Z,12.87
2022-11-08T11:26:20.137Z,12.90
2022-11-08T11:27:19.814Z,12.94
2022-11-08T11:28:21.427Z,12.98
2022-11-08T11:29:20.888Z,13.02
2022-11-08T11:30:22.065Z,13.07
2022-11-08T11:31:22.842Z,13.12
2022-11-08T11:32:22.819Z,13.17
2022-11-08T11:32:31.452Z,13.98
2022-11-08T11:33:33.206Z,13.97
2022-11-08T11:34:32.722Z,13.98
2022-11-08T11:35:35.772Z,13.98
2022-11-08T11:36:37.229Z,13.98
2022-11-08T11:37:36.218Z,13.98
2022-11-08T11:38:35.913Z,13.99
2022-11-08T11:39:37.611Z,13.99
2022-11-08T11:40:38.105Z,14.00
2022-11-08T11:41:38.370Z,14.02
2022-11-08T11:42:46.654Z,14.03
2022-11-08T11:43:38.423Z,14.05
2022-11-08T11:44:38.873Z,14.07
2022-11-08T11:45:40.802Z,14.09
2022-11-08T11:46:41.743Z,14.11
2022-11-08T11:47:41.010Z,14.14
2022-11-08T11:48:43.729Z,14.17
2022-11-08T11:49:43.209Z,14.20
2022-11-08T11:50:44.048Z,14.22
2022-11-08T11:51:43.894Z,14.25
2022-11-08T11:52:43.820Z,14.28
2022-11-08T11:53:04.719Z,14.75
2022-11-08T11:54:06.125Z,14.75
2022-11-08T11:55:05.928Z,14.75
2022-11-08T11:56:07.430Z,14.75
2022-11-08T11:57:07.823Z,14.76
2022-11-08T11:58:08.516Z,14.76
2022-11-08T11:59:08.825Z,14.77
2022-11-08T12:00:09.765Z,14.78
2022-11-08T12:01:14.057Z,14.79
2022-11-08T12:02:09.028Z,14.79
2022-11-08T12:03:09.527Z,14.80
2022-11-08T12:04:09.627Z,14.81
2022-11-08T12:05:46.212Z,14.97
2022-11-08T12:06:43.499Z,14.97
2022-11-08T12:07:43.969Z,14.97
2022-11-08T12:08:44.573Z,14.97
2022-11-08T12:09:44.619Z,14.98
2022-11-08T12:10:45.895Z,14.98
2022-11-08T12:11:46.573Z,14.99
2022-11-08T12:12:47.139Z,14.99
2022-11-08T12:13:53.135Z,14.99
2022-11-08T12:14:47.515Z,15.00
2022-11-08T12:15:48.986Z,15.00
2022-11-08T12:16:48.907Z,15.00
2022-11-08T12:17:50.245Z,15.00
2022-11-08T12:18:51.902Z,15.00
2022-11-08T12:19:50.823Z,15.00
2022-11-08T12:20:51.295Z,15.00
2022-11-08T12:21:51.448Z,15.01
2022-11-08T12:22:52.044Z,15.01
2022-11-08T12:23:53.545Z,15.02
2022-11-08T12:24:53.491Z,15.02
2022-11-08T12:25:54.904Z,15.03
2022-11-08T12:26:54.699Z,15.03
2022-11-08T12:27:54.931Z,15.04
2022-11-08T12:29:25.722Z,15.13
2022-11-08T12:30:25.739Z,15.13
2022-11-08T12:31:27.431Z,15.13
2022-11-08T12:32:28.315Z,15.13
2022-11-08T12:33:29.082Z,15.13
2022-11-08T12:34:28.229Z,15.14
2022-11-08T12:35:28.433Z,15.14
2022-11-08T12:36:28.621Z,15.15
2022-11-08T12:37:36.382Z,15.15
2022-11-08T12:38:29.328Z,15.16
2022-11-08T12:39:30.686Z,15.17
2022-11-08T12:40:29.813Z,15.18
2022-11-08T12:41:31.037Z,15.20
2022-11-08T12:42:30.240Z,15.21
2022-11-08T12:43:30.787Z,15.22
2022-11-08T12:44:30.815Z,15.23
2022-11-08T12:45:31.358Z,15.25
2022-11-08T12:46:32.468Z,15.26
2022-11-08T12:47:32.390Z,15.27
2022-11-08T12:48:34.162Z,15.28
2022-11-08T12:49:34.122Z,15.30
2022-11-08T12:50:36.948Z,15.31
2022-11-08T12:51:35.364Z,15.32
2022-11-08T12:52:37.048Z,15.33
2022-11-08T12:53:36.937Z,15.34
2022-11-08T12:54:37.348Z,15.34
2022-11-08T12:54:46.803Z,15.43
2022-11-08T12:55:47.459Z,15.43
2022-11-08T12:56:48.616Z,15.44
2022-11-08T12:57:47.963Z,15.44
2022-11-08T12:58:49.472Z,15.43
2022-11-08T12:59:50.418Z,15.43
2022-11-08T13:00:51.237Z,15.43
2022-11-08T13:01:51.123Z,15.43
2022-11-08T13:02:53.002Z,15.43
2022-11-08T13:03:53.701Z,15.43
2022-11-08T13:04:54.343Z,15.42
2022-11-08T13:05:54.152Z,15.41
2022-11-08T13:06:53.570Z,15.41
2022-11-08T13:07:53.931Z,15.40
2022-11-08T13:08:55.785Z,15.40
2022-11-08T13:09:56.393Z,15.39
2022-11-08T13:10:56.138Z,15.38
2022-11-08T13:11:57.429Z,15.37
2022-11-08T13:12:57.467Z,15.37
2022-11-08T13:13:57.575Z,15.37
2022-11-08T13:14:06.642Z,15.37
2022-11-08T13:15:06.707Z,15.37
2022-11-08T13:16:08.200Z,15.37
2022-11-08T13:17:09.047Z,15.37
2022-11-08T13:18:08.855Z,15.37
2022-11-08T13:19:09.447Z,15.38
2022-11-08T13:20:09.610Z,15.38
2022-11-08T13:21:11.283Z,15.38
2022-11-08T13:22:12.095Z,15.38
2022-11-08T13:23:11.843Z,15.38
2022-11-08T13:24:38.428Z,15.38
2022-11-08T13:25:12.565Z,15.38
2022-11-08T13:26:12.629Z,15.38
2022-11-08T13:27:12.760Z,15.38
2022-11-08T13:28:14.256Z,15.39
2022-11-08T13:29:13.654Z,15.39
2022-11-08T13:30:14.808Z,15.39
2022-11-08T13:31:14.892Z,15.39
2022-11-08T13:32:14.918Z,15.40
2022-11-08T13:33:15.112Z,15.39
2022-11-08T13:34:15.691Z,15.39
2022-11-08T13:35:15.579Z,15.40
2022-11-08T13:35:24.304Z,15.42
2022-11-08T13:36:25.239Z,15.42
2022-11-08T13:37:27.323Z,15.42
2022-11-08T13:38:26.806Z,15.42
2022-11-08T13:39:27.272Z,15.42
2022-11-08T13:40:28.903Z,15.42
2022-11-08T13:41:28.041Z,15.42
2022-11-08T13:42:29.913Z,15.41
2022-11-08T13:43:30.725Z,15.41
2022-11-08T13:44:30.928Z,15.40
2022-11-08T13:45:31.783Z,15.40
2022-11-08T13:46:33.418Z,15.40
2022-11-08T13:47:33.152Z,15.38
2022-11-08T13:48:33.815Z,15.37
2022-11-08T13:49:33.459Z,15.36
2022-11-08T13:50:35.395Z,15.35
2022-11-08T13:51:36.366Z,15.35
2022-11-08T13:52:37.204Z,15.34
2022-11-08T13:53:37.232Z,15.33
2022-11-08T13:54:38.069Z,15.32
2022-11-08T13:55:38.756Z,15.32
2022-11-08T13:55:49.264Z,15.25
2022-11-08T13:56:49.299Z,15.24
2022-11-08T13:57:49.731Z,15.25
2022-11-08T13:58:50.766Z,15.26
2022-11-08T13:59:50.632Z,15.26
2022-11-08T14:00:51.959Z,15.26
2022-11-08T14:01:51.798Z,15.27
2022-11-08T14:02:51.906Z,15.28
2022-11-08T14:03:52.940Z,15.30
2022-11-08T14:04:53.064Z,15.31
2022-11-08T14:05:53.996Z,15.33
2022-11-08T14:06:54.200Z,15.34
2022-11-08T14:07:53.821Z,15.35
2022-11-08T14:08:55.558Z,15.36
2022-11-08T14:09:56.179Z,15.37
2022-11-08T14:10:56.690Z,15.38
2022-11-08T14:11:56.251Z,15.39
2022-11-08T14:12:57.694Z,15.41
2022-11-08T14:13:57.733Z,15.42
2022-11-08T14:14:58.489Z,15.44
2022-11-08T14:15:58.599Z,15.46
2022-11-08T14:16:07.312Z,15.83
2022-11-08T14:17:07.988Z,15.83
2022-11-08T14:18:09.907Z,15.84
2022-11-08T14:19:10.176Z,15.84
2022-11-08T14:20:09.464Z,15.85
2022-11-08T14:21:10.176Z,15.85
2022-11-08T14:22:11.355Z,15.86
2022-11-08T14:23:11.828Z,15.88
2022-11-08T14:24:11.830Z,15.91
2022-11-08T14:25:11.935Z,15.94
2022-11-08T14:26:11.414Z,15.98
2022-11-08T14:27:11.643Z,16.02
2022-11-08T14:28:13.084Z,16.06
2022-11-08T14:29:12.835Z,16.11
2022-11-08T14:30:13.207Z,16.15
2022-11-08T14:31:13.235Z,16.19
2022-11-08T14:32:14.144Z,16.22
2022-11-08T14:33:15.134Z,16.25
2022-11-08T14:34:15.762Z,16.28
2022-11-08T14:35:17.228Z,16.30
2022-11-08T14:36:18.227Z,16.31
2022-11-08T14:37:17.763Z,16.31
2022-11-08T14:38:19.502Z,16.31
2022-11-08T14:39:20.391Z,16.32
2022-11-08T14:39:29.068Z,16.50
2022-11-08T14:40:29.619Z,16.50